createdAt,value
2018-05-15T00:00:22.798Z,19.30
2018-05-15T00:02:48.917Z,14.47
2018-05-15T00:05:15.017Z,22.43
2018-05-15T00:07:41.114Z,19.00
2018-05-15T00:10:07.983Z,14.67
2018-05-15T00:12:34.796Z,18.17
2018-05-15T00:15:00.871Z,18.90
2018-05-15T00:17:26.936Z,17.43
2018-05-15T00:19:53.002Z,15.97
2018-05-15T00:22:19.047Z,14.60
2018-05-15T00:24:45.132Z,13.33
2018-05-15T00:27:11.256Z,23.40
2018-05-15T00:29:37.342Z,18.17
2018-05-15T00:32:03.384Z,20.03
2018-05-15T00:34:29.471Z,17.43
2018-05-15T00:36:55.555Z,19.73
2018-05-15T00:39:21.617Z,16.23
2018-05-15T00:41:47.676Z,16.20
2018-05-15T00:44:14.653Z,16.77
2018-05-15T00:46:40.875Z,25.83
2018-05-15T00:49:07.693Z,22.23
2018-05-15T00:51:33.767Z,20.50
2018-05-15T00:53:59.867Z,23.83
2018-05-15T00:56:25.953Z,13.63
2018-05-15T00:58:52.807Z,16.47
2018-05-15T01:01:19.644Z,16.70
2018-05-15T01:03:45.782Z,22.37
2018-05-15T01:06:11.899Z,21.87
2018-05-15T01:08:37.994Z,21.90
2018-05-15T01:11:04.097Z,16.95
2018-05-15T01:13:30.179Z,19.23
2018-05-15T01:15:56.274Z,23.80
2018-05-15T01:18:22.351Z,19.73
2018-05-15T01:20:48.422Z,20.92
2018-05-15T01:23:14.551Z,19.70
2018-05-15T01:25:40.690Z,19.02
2018-05-15T01:28:06.730Z,19.90
2018-05-15T01:30:32.825Z,21.40
2018-05-15T01:32:59.667Z,23.40
2018-05-15T01:35:25.740Z,20.02
2018-05-15T01:37:51.847Z,20.50
2018-05-15T01:40:18.824Z,21.62
2018-05-15T01:42:44.864Z,22.08
2018-05-15T01:45:11.226Z,17.60
2018-05-15T01:47:37.442Z,17.73
2018-05-15T01:50:03.545Z,21.27
2018-05-15T01:52:29.697Z,22.33
2018-05-15T01:54:55.748Z,20.10
2018-05-15T01:57:23.133Z,24.53
2018-05-15T01:59:49.227Z,21.60
2018-05-15T02:02:15.330Z,23.02
2018-05-15T02:04:41.434Z,23.00
2018-05-15T02:07:07.556Z,17.75
2018-05-15T02:09:33.620Z,21.98
2018-05-15T02:11:59.666Z,20.05
2018-05-15T02:14:25.785Z,20.08
2018-05-15T02:16:52.605Z,17.62
2018-05-15T02:19:18.647Z,18.33
2018-05-15T02:21:44.768Z,23.23
2018-05-15T02:24:10.880Z,24.27
2018-05-15T02:26:36.928Z,23.23
2018-05-15T02:29:03.253Z,20.88
2018-05-15T02:31:29.457Z,21.58
2018-05-15T02:33:56.280Z,23.15
2018-05-15T02:36:22.351Z,25.65
2018-05-15T02:38:48.420Z,21.67
2018-05-15T02:41:14.507Z,25.73
2018-05-15T02:43:40.563Z,24.08
2018-05-15T02:46:06.954Z,26.17
2018-05-15T02:48:33.025Z,25.83
2018-05-15T02:50:59.110Z,22.02
2018-05-15T02:53:25.187Z,24.35
2018-05-15T02:55:51.618Z,23.98
2018-05-15T02:58:17.727Z,22.77
2018-05-15T03:00:43.888Z,25.20
2018-05-15T03:03:11.078Z,28.80
2018-05-15T03:05:37.169Z,21.02
2018-05-15T03:08:04.012Z,22.67
2018-05-15T03:10:30.854Z,20.52
2018-05-15T03:12:56.912Z,21.62
2018-05-15T03:15:23.002Z,27.60
2018-05-15T03:17:49.106Z,26.33
2018-05-15T03:20:15.217Z,26.27
2018-05-15T03:22:42.100Z,28.60
2018-05-15T03:25:08.180Z,28.27
2018-05-15T03:27:34.244Z,23.02
2018-05-15T03:30:00.377Z,23.50
2018-05-15T03:32:26.471Z,22.75
2018-05-15T03:34:52.580Z,28.12
2018-05-15T03:37:18.646Z,26.52
2018-05-15T03:39:44.781Z,25.60
2018-05-15T03:42:10.901Z,22.87
2018-05-15T03:44:37.736Z,25.98
2018-05-15T03:47:03.868Z,26.17
2018-05-15T03:49:29.994Z,24.35
2018-05-15T03:51:56.065Z,25.12
2018-05-15T03:54:22.859Z,25.98
2018-05-15T03:56:49.033Z,24.87
2018-05-15T03:59:15.190Z,25.27
2018-05-15T04:01:53.627Z,23.42
2018-05-15T04:04:31.841Z,27.23
2018-05-15T04:07:10.371Z,26.17
2018-05-15T04:09:36.461Z,30.08
2018-05-15T04:12:02.563Z,22.52
2018-05-15T04:14:30.227Z,23.12
2018-05-15T04:16:56.278Z,26.43
2018-05-15T04:19:23.071Z,23.92
2018-05-15T04:21:49.193Z,23.92
2018-05-15T04:24:15.287Z,24.50
2018-05-15T04:26:41.442Z,24.23
2018-05-15T04:29:08.231Z,23.80
2018-05-15T04:31:34.277Z,25.25
2018-05-15T04:34:00.356Z,22.87
2018-05-15T04:36:26.433Z,26.77
2018-05-15T04:38:52.514Z,25.58
2018-05-15T04:41:18.553Z,25.10
2018-05-15T04:43:44.712Z,25.85
2018-05-15T04:46:10.701Z,23.90
2018-05-15T04:48:36.874Z,25.25
2018-05-15T04:51:02.944Z,23.85
2018-05-15T04:53:29.886Z,27.52
2018-05-15T04:55:56.804Z,27.48
2018-05-15T04:58:22.891Z,25.75
2018-05-15T05:00:49.878Z,26.57
2018-05-15T05:03:15.987Z,29.30
2018-05-15T05:05:42.362Z,29.00
2018-05-15T05:08:08.450Z,32.20
2018-05-15T05:10:34.584Z,22.20
2018-05-15T05:13:00.703Z,28.10
2018-05-15T05:15:33.053Z,29.53
2018-05-15T05:17:59.149Z,29.23
2018-05-15T05:20:25.225Z,25.40
2018-05-15T05:22:51.277Z,21.53
2018-05-15T05:25:17.415Z,28.53
2018-05-15T05:27:43.591Z,26.80
2018-05-15T05:30:09.668Z,29.33
2018-05-15T05:32:36.453Z,26.47
2018-05-15T05:35:02.529Z,25.90
2018-05-15T05:37:28.668Z,25.83
2018-05-15T05:39:54.733Z,28.00
2018-05-15T05:42:21.570Z,27.40
2018-05-15T05:44:47.661Z,25.17
2018-05-15T05:47:13.714Z,27.40
2018-05-15T05:49:39.841Z,29.50
2018-05-15T05:52:05.957Z,23.00
2018-05-15T05:54:32.758Z,26.27
2018-05-15T05:56:58.801Z,21.63
2018-05-15T05:59:24.919Z,26.57
2018-05-15T06:01:51.346Z,24.40
2018-05-15T06:04:17.426Z,28.58
2018-05-15T06:06:43.532Z,26.52
2018-05-15T06:09:09.684Z,28.65
2018-05-15T06:11:35.793Z,31.25
2018-05-15T06:14:02.255Z,26.83
2018-05-15T06:16:28.298Z,27.48
2018-05-15T06:18:54.374Z,28.33
2018-05-15T06:21:20.445Z,27.43
2018-05-15T06:23:46.535Z,24.40
2018-05-15T06:26:13.480Z,21.73
2018-05-15T06:28:39.553Z,26.55
2018-05-15T06:31:05.612Z,25.52
2018-05-15T06:33:32.482Z,23.98
2018-05-15T06:35:58.581Z,28.08
2018-05-15T06:38:24.738Z,22.30
2018-05-15T06:40:50.836Z,23.48
2018-05-15T06:43:16.960Z,25.17
2018-05-15T06:45:43.063Z,36.38
2018-05-15T06:48:09.904Z,30.53
2018-05-15T06:50:35.984Z,28.45
2018-05-15T06:53:02.180Z,25.92
2018-05-15T06:55:28.277Z,19.73
2018-05-15T06:57:54.369Z,23.73
2018-05-15T07:00:21.305Z,22.23
2018-05-15T07:02:47.490Z,26.25
2018-05-15T07:05:13.719Z,25.73
2018-05-15T07:07:39.828Z,26.50
2018-05-15T07:10:05.924Z,22.80
2018-05-15T07:12:32.033Z,24.15
2018-05-15T07:14:58.105Z,20.12
2018-05-15T07:17:24.197Z,22.35
2018-05-15T07:19:51.001Z,25.97
2018-05-15T07:22:17.121Z,21.97
2018-05-15T07:24:43.275Z,17.93
2018-05-15T07:27:09.591Z,19.87
2018-05-15T07:29:35.649Z,20.57
2018-05-15T07:32:01.732Z,23.17
2018-05-15T07:34:27.773Z,21.00
2018-05-15T07:36:53.842Z,18.03
2018-05-15T07:39:19.910Z,21.90
2018-05-15T07:41:46.005Z,21.57
2018-05-15T07:44:12.174Z,16.93
2018-05-15T07:46:38.212Z,19.47
2018-05-15T07:49:04.319Z,20.80
2018-05-15T09:41:07.578Z,10.00
2018-05-15T09:46:31.296Z,5.80
2018-05-15T09:48:57.430Z,9.43
2018-05-15T09:51:23.466Z,6.67
2018-05-15T09:53:49.504Z,10.37
2018-05-15T09:56:16.343Z,8.10
2018-05-15T09:58:43.343Z,8.33
2018-05-15T10:01:09.399Z,10.23
2018-05-15T10:03:35.478Z,7.40
2018-05-15T10:06:02.285Z,17.03
2018-05-15T10:08:28.368Z,5.73
2018-05-15T10:10:55.187Z,10.70
2018-05-15T10:13:21.269Z,10.10
2018-05-15T10:15:48.100Z,9.30
2018-05-15T10:18:14.180Z,10.03
2018-05-15T10:20:40.266Z,9.00
2018-05-15T10:23:07.109Z,9.60
2018-05-15T10:25:33.156Z,15.60
2018-05-15T10:27:59.227Z,6.23
2018-05-15T10:30:26.102Z,11.20
2018-05-15T10:32:52.197Z,9.00
2018-05-15T10:35:18.252Z,6.50
2018-05-15T10:59:39.924Z,7.78
2018-05-15T11:02:05.964Z,6.50
2018-05-15T11:04:32.031Z,13.80
2018-05-15T11:06:58.058Z,8.77
2018-05-15T11:09:25.245Z,5.10
2018-05-15T11:11:53.908Z,6.43
2018-05-15T11:14:20.083Z,10.23
2018-05-15T11:16:46.250Z,9.97
2018-05-15T11:19:24.609Z,8.63
2018-05-15T11:22:03.205Z,7.78
2018-05-15T11:27:26.982Z,5.35
2018-05-15T11:32:19.790Z,6.22
2018-05-15T11:34:46.629Z,5.32
2018-05-15T11:37:13.762Z,13.20
2018-05-15T11:39:39.804Z,12.68
2018-05-15T11:42:05.875Z,5.30
2018-05-15T11:44:32.712Z,8.10
2018-05-15T11:46:58.787Z,5.85
2018-05-15T11:49:25.608Z,6.65
2018-05-15T11:51:51.964Z,3.58
2018-05-15T11:54:17.326Z,9.70
2018-05-15T11:56:43.399Z,13.10
2018-05-15T11:59:09.467Z,3.97
2018-05-15T12:01:36.295Z,5.28
2018-05-15T12:04:02.483Z,4.97
2018-05-15T12:06:28.480Z,8.30
2018-05-15T12:08:54.542Z,4.07
2018-05-15T12:11:21.326Z,6.68
2018-05-15T12:13:47.362Z,6.43
2018-05-15T12:16:13.463Z,4.87
2018-05-15T12:18:40.284Z,6.28
2018-05-15T12:21:06.325Z,8.73
2018-05-15T12:23:32.918Z,5.07
2018-05-15T12:25:58.980Z,6.90
2018-05-15T12:28:25.034Z,10.98
2018-05-15T12:30:51.146Z,3.47
2018-05-15T12:33:17.229Z,5.43
2018-05-15T12:35:43.318Z,3.42
2018-05-15T12:38:09.430Z,7.70
2018-05-15T12:40:35.505Z,4.55
2018-05-15T12:43:01.526Z,5.25
2018-05-15T12:45:28.386Z,4.12
2018-05-15T12:47:54.520Z,4.78
2018-05-15T12:50:20.518Z,5.82
2018-05-15T12:52:46.602Z,8.57
2018-05-15T12:55:12.819Z,6.28
2018-05-15T12:57:39.613Z,5.20
2018-05-15T13:00:05.738Z,4.37
2018-05-15T13:02:31.765Z,5.60
2018-05-15T13:04:58.558Z,5.30
2018-05-15T13:07:24.597Z,6.97
2018-05-15T13:09:50.731Z,3.85
2018-05-15T13:12:16.793Z,5.80
2018-05-15T13:14:43.340Z,5.68
2018-05-15T13:17:09.438Z,13.70
2018-05-15T13:19:35.567Z,3.17
2018-05-15T13:22:01.621Z,7.00
2018-05-15T13:24:27.773Z,6.95
2018-05-15T13:26:54.567Z,4.97
2018-05-15T13:29:20.652Z,3.95
2018-05-15T13:31:46.890Z,2.78
2018-05-15T13:34:12.969Z,3.37
2018-05-15T13:36:39.036Z,4.47
2018-05-15T13:39:05.865Z,4.30
2018-05-15T13:41:31.929Z,3.47
2018-05-15T13:43:58.733Z,7.72
2018-05-15T13:46:24.934Z,3.05
2018-05-15T13:48:51.798Z,2.15
2018-05-15T13:51:18.605Z,2.30
2018-05-15T13:53:45.044Z,2.33
2018-05-15T13:56:11.155Z,3.72
2018-05-15T13:58:37.182Z,4.35
2018-05-15T14:01:03.266Z,3.70
2018-05-15T14:03:29.321Z,4.68
2018-05-15T14:05:55.374Z,6.75
2018-05-15T14:08:22.250Z,3.45
2018-05-15T14:10:48.408Z,2.83
2018-05-15T14:13:15.430Z,9.13
2018-05-15T14:15:41.489Z,3.92
2018-05-15T14:18:07.554Z,2.47
2018-05-15T14:20:33.612Z,4.62
2018-05-15T14:22:59.778Z,2.92
2018-05-15T14:25:26.577Z,3.67
2018-05-15T14:27:52.634Z,7.30
2018-05-15T14:30:18.754Z,2.62
2018-05-15T14:32:44.853Z,3.08
2018-05-15T14:35:10.947Z,4.75
2018-05-15T14:37:36.985Z,3.87
2018-05-15T14:40:03.148Z,20.20
2018-05-15T14:42:41.467Z,2.80
2018-05-15T14:45:07.542Z,5.85
2018-05-15T14:47:33.609Z,5.15
2018-05-15T14:49:59.709Z,3.22
2018-05-15T14:52:26.521Z,5.85
2018-05-15T14:54:52.567Z,2.85
2018-05-15T14:57:18.632Z,3.22
2018-05-15T14:59:44.722Z,4.68
2018-05-15T15:02:10.782Z,2.60
2018-05-15T15:04:36.838Z,4.65
2018-05-15T15:07:02.948Z,5.07
2018-05-15T15:09:29.006Z,2.78
2018-05-15T15:11:55.070Z,2.67
2018-05-15T15:14:21.104Z,3.50
2018-05-15T15:16:47.947Z,6.05
2018-05-15T15:19:14.013Z,3.60
2018-05-15T15:21:40.068Z,4.05
2018-05-15T15:24:06.115Z,6.57
2018-05-15T15:26:32.171Z,4.28
2018-05-15T15:28:58.524Z,3.53
2018-05-15T15:31:24.709Z,9.30
2018-05-15T15:33:50.786Z,4.25
2018-05-15T15:36:17.010Z,5.82
2018-05-15T15:38:43.209Z,5.50
2018-05-15T15:41:10.117Z,5.43
2018-05-15T15:43:36.592Z,2.90
2018-05-15T15:46:03.342Z,5.65
2018-05-15T15:48:29.464Z,6.65
2018-05-15T15:50:55.556Z,4.40
2018-05-15T15:53:22.491Z,3.12
2018-05-15T15:55:48.626Z,2.53
2018-05-15T15:58:14.700Z,3.90
2018-05-15T16:00:40.751Z,3.60
2018-05-15T16:03:06.857Z,10.02
2018-05-15T16:05:33.701Z,6.70
2018-05-15T16:07:59.765Z,6.65
2018-05-15T16:10:25.852Z,7.25
2018-05-15T16:12:52.112Z,7.25
2018-05-15T16:15:18.147Z,12.63
2018-05-15T16:17:44.299Z,6.40
2018-05-15T16:22:36.377Z,9.40
2018-05-15T16:29:56.224Z,12.50
2018-05-15T16:32:23.032Z,13.20
2018-05-15T16:34:49.849Z,9.37
2018-05-15T16:37:16.200Z,6.93
2018-05-15T16:39:42.245Z,15.00
2018-05-15T16:42:08.288Z,17.30
2018-05-15T16:44:34.436Z,8.60
2018-05-15T16:47:00.474Z,8.43
2018-05-15T16:49:26.567Z,8.70
2018-05-15T16:51:53.615Z,11.13
2018-05-15T16:54:19.675Z,8.90
2018-05-15T16:56:45.801Z,11.13
2018-05-15T16:59:12.614Z,12.20
2018-05-15T17:01:38.688Z,5.90
2018-05-15T17:04:04.775Z,11.40
2018-05-15T17:06:30.890Z,12.60
2018-05-15T17:08:57.738Z,14.90
2018-05-15T17:11:24.644Z,7.03
2018-05-15T17:13:50.714Z,5.97
2018-05-15T17:16:16.774Z,8.00
2018-05-15T17:18:43.665Z,13.13
2018-05-15T17:21:09.807Z,16.53
2018-05-15T17:23:35.825Z,12.77
2018-05-15T17:26:01.866Z,11.67
2018-05-15T17:28:27.958Z,7.50
2018-05-15T17:30:54.005Z,9.30
2018-05-15T17:33:20.058Z,7.30
2018-05-15T17:35:47.227Z,9.20
2018-05-15T17:38:13.301Z,11.03
2018-05-15T17:40:39.360Z,20.10
2018-05-15T17:43:05.446Z,16.83
2018-05-15T17:45:31.535Z,9.90
2018-05-15T17:47:57.607Z,17.60
2018-05-15T17:50:24.389Z,20.83
2018-05-15T17:52:50.602Z,7.53
2018-05-15T17:55:16.615Z,12.33
2018-05-15T17:57:42.663Z,9.50
2018-05-15T18:00:08.738Z,13.30
2018-05-15T18:02:34.894Z,9.40
2018-05-15T18:05:01.139Z,16.70
2018-05-15T18:07:27.200Z,13.00
2018-05-15T18:09:53.706Z,12.07
2018-05-15T18:12:19.753Z,8.60
2018-05-15T18:14:45.829Z,14.97
2018-05-15T18:17:12.215Z,10.03
2018-05-15T18:19:38.242Z,10.47
2018-05-15T18:22:04.280Z,12.23
2018-05-15T18:24:30.913Z,11.40
2018-05-15T18:26:57.688Z,6.53
2018-05-15T18:29:24.726Z,10.70
2018-05-15T18:31:50.724Z,13.50
2018-05-15T18:34:16.820Z,9.30
2018-05-15T18:36:43.175Z,10.60
2018-05-15T18:39:09.295Z,13.83
2018-05-15T18:41:36.080Z,9.67
2018-05-15T18:44:02.145Z,11.13
2018-05-15T18:46:28.226Z,12.90
2018-05-15T18:48:55.013Z,18.37
2018-05-15T18:51:21.078Z,9.73
2018-05-15T18:53:47.202Z,12.20
2018-05-15T18:56:13.381Z,8.10
2018-05-15T18:58:40.173Z,8.90
2018-05-15T19:01:06.280Z,14.53
2018-05-15T19:03:32.368Z,11.60
2018-05-15T19:05:58.407Z,12.80
2018-05-15T19:08:24.460Z,13.17
2018-05-15T19:10:50.543Z,7.00
2018-05-15T19:13:16.608Z,13.60
2018-05-15T19:15:42.689Z,9.27
2018-05-15T19:18:08.821Z,7.80
2018-05-15T19:20:34.871Z,9.03
2018-05-15T19:23:00.938Z,9.10
2018-05-15T19:25:27.751Z,9.93
2018-05-15T19:27:53.803Z,11.53
2018-05-15T19:30:19.976Z,12.10
2018-05-15T19:32:46.047Z,13.87
2018-05-15T19:35:18.096Z,11.87
2018-05-15T19:37:44.170Z,11.27
2018-05-15T19:40:12.158Z,12.33
2018-05-15T19:42:38.183Z,7.37
2018-05-15T19:45:04.241Z,9.27
2018-05-15T19:47:30.318Z,9.33
2018-05-15T19:49:56.550Z,9.57
2018-05-15T19:52:22.614Z,14.20
2018-05-15T19:54:48.637Z,10.83
2018-05-15T19:57:14.722Z,8.90
2018-05-15T19:59:40.775Z,9.47
2018-05-15T20:02:06.784Z,8.23
2018-05-15T20:04:32.843Z,9.85
2018-05-15T20:06:58.878Z,8.68
2018-05-15T20:09:24.934Z,9.60
2018-05-15T20:11:51.100Z,14.87
2018-05-15T20:14:17.213Z,16.17
2018-05-15T20:16:43.662Z,16.40
2018-05-15T20:19:09.741Z,9.90
2018-05-15T20:21:35.831Z,13.00
2018-05-15T20:24:01.895Z,9.77
2018-05-15T20:26:27.934Z,23.13
2018-05-15T20:28:53.971Z,8.83
2018-05-15T20:31:20.765Z,9.80
2018-05-15T20:33:46.809Z,12.20
2018-05-15T20:36:13.032Z,17.13
2018-05-15T20:38:39.138Z,11.87
2018-05-15T20:41:05.190Z,8.90
2018-05-15T20:43:32.721Z,6.47
2018-05-15T20:45:58.760Z,11.17
2018-05-15T20:48:25.248Z,7.60
2018-05-15T20:50:51.298Z,10.00
2018-05-15T20:53:17.376Z,9.03
2018-05-15T20:55:45.112Z,10.90
2018-05-15T20:58:11.925Z,11.53
2018-05-15T21:00:38.055Z,8.90
2018-05-15T21:03:04.097Z,12.70
2018-05-15T21:05:30.274Z,11.87
2018-05-15T21:07:56.302Z,10.27
2018-05-15T21:10:22.325Z,11.50
2018-05-15T21:12:48.363Z,8.53
2018-05-15T21:15:15.184Z,13.80
2018-05-15T21:17:41.276Z,15.63
2018-05-15T21:20:07.339Z,14.13
2018-05-15T21:22:33.389Z,12.10
2018-05-15T21:25:01.248Z,17.53
2018-05-15T21:27:27.309Z,12.40
2018-05-15T21:29:53.352Z,10.97
2018-05-15T21:32:19.398Z,10.47
2018-05-15T21:34:45.470Z,12.03
2018-05-15T21:37:12.481Z,11.43
2018-05-15T21:39:38.555Z,10.97
2018-05-15T21:42:05.528Z,7.63
2018-05-15T21:44:31.638Z,11.03
2018-05-15T21:46:58.419Z,9.17
2018-05-15T21:49:24.461Z,14.43
2018-05-15T21:51:50.551Z,8.23
2018-05-15T21:54:16.594Z,12.20
2018-05-15T21:56:42.628Z,10.43
2018-05-15T21:59:08.704Z,10.77
2018-05-15T22:01:34.753Z,11.20
2018-05-15T22:04:00.792Z,16.37
2018-05-15T22:06:26.887Z,11.83
2018-05-15T22:08:52.928Z,12.07
2018-05-15T22:11:18.839Z,15.10
2018-05-15T22:13:57.190Z,9.57
2018-05-15T22:16:35.601Z,10.30
2018-05-15T22:19:13.929Z,12.60
2018-05-15T22:21:52.161Z,12.10
2018-05-15T22:24:18.220Z,9.77
2018-05-15T22:26:45.045Z,7.00
2018-05-15T22:29:11.114Z,9.20
2018-05-15T22:31:37.954Z,15.73
2018-05-15T22:34:04.429Z,9.97
2018-05-15T22:36:30.494Z,13.33
2018-05-15T22:38:56.520Z,12.13
2018-05-15T22:41:22.553Z,9.10
2018-05-15T22:43:48.570Z,7.33
2018-05-15T22:46:14.618Z,13.60
2018-05-15T22:48:40.688Z,13.93
2018-05-15T22:51:06.725Z,16.43
2018-05-15T22:53:32.766Z,12.37
2018-05-15T22:55:58.845Z,18.40
2018-05-15T22:58:24.893Z,12.73
2018-05-15T23:00:50.957Z,14.97
2018-05-15T23:03:17.019Z,8.77
2018-05-15T23:05:43.069Z,12.53
2018-05-15T23:08:09.106Z,8.60
2018-05-15T23:10:35.178Z,14.43
2018-05-15T23:13:01.257Z,19.80
2018-05-15T23:15:27.313Z,10.97
2018-05-15T23:17:53.364Z,12.23
2018-05-15T23:20:19.410Z,11.47
2018-05-15T23:22:45.568Z,11.10
2018-05-15T23:25:11.643Z,11.63
2018-05-15T23:27:37.682Z,18.47
2018-05-15T23:30:04.190Z,12.40
2018-05-15T23:32:30.988Z,11.70
2018-05-15T23:34:57.035Z,13.70
2018-05-15T23:37:23.103Z,10.20
2018-05-15T23:39:49.151Z,13.47
2018-05-15T23:42:15.313Z,12.40
2018-05-15T23:44:41.379Z,7.93
2018-05-15T23:47:08.483Z,10.70
2018-05-15T23:49:34.511Z,10.23
2018-05-15T23:52:00.780Z,11.23
2018-05-15T23:54:26.794Z,17.13
2018-05-15T23:56:52.845Z,13.60
2018-05-15T23:59:19.698Z,14.00
